sensor_id;sensor_type;location;lat;lon;timestamp;P1;durP1;ratioP1;P2;durP2;ratioP2
4585;SDS011;2305;50.118;8.952;2023-08-17T00:00:06;9.80;;;2.33;;
4585;SDS011;2305;50.118;8.952;2023-08-17T00:02:38;3.20;;;1.70;;
4585;SDS011;2305;50.118;8.952;2023-08-17T00:05:07;6.00;;;1.67;;
4585;SDS011;2305;50.118;8.952;2023-08-17T00:07:35;9.20;;;2.43;;
4585;SDS011;2305;50.118;8.952;2023-08-17T00:10:05;4.20;;;2.13;;
4585;SDS011;2305;50.118;8.952;2023-08-17T00:12:35;10.07;;;2.13;;
4585;SDS011;2305;50.118;8.952;2023-08-17T00:15:04;5.03;;;1.77;;
4585;SDS011;2305;50.118;8.952;2023-08-17T00:17:34;7.73;;;2.33;;
4585;SDS011;2305;50.118;8.952;2023-08-17T00:20:05;5.10;;;2.50;;
4585;SDS011;2305;50.118;8.952;2023-08-17T00:22:36;5.70;;;2.77;;
4585;SDS011;2305;50.118;8.952;2023-08-17T00:25:06;7.13;;;2.83;;
4585;SDS011;2305;50.118;8.952;2023-08-17T00:27:39;4.87;;;2.60;;
4585;SDS011;2305;50.118;8.952;2023-08-17T00:30:08;4.73;;;2.90;;
4585;SDS011;2305;50.118;8.952;2023-08-17T00:32:38;4.20;;;3.07;;
4585;SDS011;2305;50.118;8.952;2023-08-17T00:35:08;9.60;;;2.70;;
4585;SDS011;2305;50.118;8.952;2023-08-17T00:37:36;5.53;;;3.17;;
4585;SDS011;2305;50.118;8.952;2023-08-17T00:40:06;4.40;;;2.83;;
4585;SDS011;2305;50.118;8.952;2023-08-17T00:42:37;5.57;;;2.83;;
4585;SDS011;2305;50.118;8.952;2023-08-17T00:45:12;5.50;;;2.77;;
4585;SDS011;2305;50.118;8.952;2023-08-17T00:47:42;6.13;;;2.40;;
4585;SDS011;2305;50.118;8.952;2023-08-17T00:50:10;6.47;;;3.13;;
4585;SDS011;2305;50.118;8.952;2023-08-17T00:52:41;11.17;;;2.70;;
4585;SDS011;2305;50.118;8.952;2023-08-17T00:55:11;8.03;;;2.83;;
4585;SDS011;2305;50.118;8.952;2023-08-17T00:57:41;3.70;;;2.83;;
4585;SDS011;2305;50.118;8.952;2023-08-17T01:00:11;4.93;;;2.20;;
4585;SDS011;2305;50.118;8.952;2023-08-17T01:02:46;8.07;;;2.40;;
4585;SDS011;2305;50.118;8.952;2023-08-17T01:05:16;7.50;;;2.43;;
4585;SDS011;2305;50.118;8.952;2023-08-17T01:07:46;6.00;;;2.53;;
4585;SDS011;2305;50.118;8.952;2023-08-17T01:10:17;5.90;;;2.30;;
4585;SDS011;2305;50.118;8.952;2023-08-17T01:12:48;7.20;;;2.53;;
4585;SDS011;2305;50.118;8.952;2023-08-17T01:15:24;5.07;;;2.50;;
4585;SDS011;2305;50.118;8.952;2023-08-17T01:18:09;9.07;;;2.60;;
4585;SDS011;2305;50.118;8.952;2023-08-17T01:20:44;7.33;;;2.50;;
4585;SDS011;2305;50.118;8.952;2023-08-17T01:23:15;3.70;;;2.30;;
4585;SDS011;2305;50.118;8.952;2023-08-17T01:25:44;4.33;;;2.50;;
4585;SDS011;2305;50.118;8.952;2023-08-17T01:28:15;3.60;;;2.20;;
4585;SDS011;2305;50.118;8.952;2023-08-17T01:30:46;4.17;;;2.30;;
4585;SDS011;2305;50.118;8.952;2023-08-17T01:33:24;3.57;;;2.20;;
4585;SDS011;2305;50.118;8.952;2023-08-17T01:36:01;10.23;;;3.10;;
4585;SDS011;2305;50.118;8.952;2023-08-17T01:38:45;10.60;;;3.10;;
4585;SDS011;2305;50.118;8.952;2023-08-17T01:41:18;7.40;;;2.40;;
4585;SDS011;2305;50.118;8.952;2023-08-17T01:43:50;4.40;;;2.50;;
4585;SDS011;2305;50.118;8.952;2023-08-17T01:46:20;6.93;;;2.93;;
4585;SDS011;2305;50.118;8.952;2023-08-17T01:48:50;8.87;;;3.00;;
4585;SDS011;2305;50.118;8.952;2023-08-17T01:51:20;7.90;;;3.43;;
4585;SDS011;2305;50.118;8.952;2023-08-17T01:53:53;6.10;;;3.30;;
4585;SDS011;2305;50.118;8.952;2023-08-17T01:56:22;6.80;;;3.20;;
4585;SDS011;2305;50.118;8.952;2023-08-17T01:58:50;5.57;;;3.00;;
4585;SDS011;2305;50.118;8.952;2023-08-17T02:01:22;3.60;;;2.67;;
4585;SDS011;2305;50.118;8.952;2023-08-17T02:03:50;4.67;;;2.90;;
4585;SDS011;2305;50.118;8.952;2023-08-17T02:06:20;6.37;;;3.57;;
4585;SDS011;2305;50.118;8.952;2023-08-17T02:08:49;7.50;;;2.60;;
4585;SDS011;2305;50.118;8.952;2023-08-17T02:11:18;3.83;;;2.50;;
4585;SDS011;2305;50.118;8.952;2023-08-17T02:13:46;6.30;;;2.90;;
4585;SDS011;2305;50.118;8.952;2023-08-17T02:16:15;8.80;;;3.17;;
4585;SDS011;2305;50.118;8.952;2023-08-17T02:18:46;6.70;;;2.93;;
4585;SDS011;2305;50.118;8.952;2023-08-17T02:21:15;3.47;;;2.50;;
4585;SDS011;2305;50.118;8.952;2023-08-17T02:23:43;9.63;;;2.90;;
4585;SDS011;2305;50.118;8.952;2023-08-17T02:26:13;3.30;;;2.33;;
4585;SDS011;2305;50.118;8.952;2023-08-17T02:28:43;5.10;;;2.40;;
4585;SDS011;2305;50.118;8.952;2023-08-17T02:31:11;3.77;;;1.97;;
4585;SDS011;2305;50.118;8.952;2023-08-17T02:33:42;5.23;;;2.57;;
4585;SDS011;2305;50.118;8.952;2023-08-17T02:36:10;5.20;;;3.20;;
4585;SDS011;2305;50.118;8.952;2023-08-17T02:38:39;3.30;;;2.43;;
4585;SDS011;2305;50.118;8.952;2023-08-17T02:41:07;5.70;;;3.10;;
4585;SDS011;2305;50.118;8.952;2023-08-17T02:43:37;3.10;;;2.63;;
4585;SDS011;2305;50.118;8.952;2023-08-17T02:46:10;8.50;;;3.07;;
4585;SDS011;2305;50.118;8.952;2023-08-17T02:48:38;5.50;;;3.50;;
4585;SDS011;2305;50.118;8.952;2023-08-17T02:51:11;7.73;;;3.43;;
4585;SDS011;2305;50.118;8.952;2023-08-17T02:53:40;5.93;;;3.90;;
4585;SDS011;2305;50.118;8.952;2023-08-17T02:56:08;5.83;;;3.50;;
4585;SDS011;2305;50.118;8.952;2023-08-17T02:58:38;14.47;;;3.50;;
4585;SDS011;2305;50.118;8.952;2023-08-17T03:01:07;6.57;;;4.13;;
4585;SDS011;2305;50.118;8.952;2023-08-17T03:03:38;4.93;;;3.80;;
4585;SDS011;2305;50.118;8.952;2023-08-17T03:06:10;7.60;;;3.97;;
4585;SDS011;2305;50.118;8.952;2023-08-17T03:08:39;7.20;;;4.40;;
4585;SDS011;2305;50.118;8.952;2023-08-17T03:11:10;11.07;;;4.20;;
4585;SDS011;2305;50.118;8.952;2023-08-17T03:13:42;9.40;;;4.20;;
4585;SDS011;2305;50.118;8.952;2023-08-17T03:16:17;7.77;;;4.13;;
4585;SDS011;2305;50.118;8.952;2023-08-17T03:18:47;4.80;;;3.60;;
4585;SDS011;2305;50.118;8.952;2023-08-17T03:21:17;4.73;;;4.20;;
4585;SDS011;2305;50.118;8.952;2023-08-17T03:23:47;4.73;;;3.63;;
4585;SDS011;2305;50.118;8.952;2023-08-17T03:26:18;6.90;;;4.00;;
4585;SDS011;2305;50.118;8.952;2023-08-17T03:28:48;4.83;;;4.10;;
4585;SDS011;2305;50.118;8.952;2023-08-17T03:31:21;5.97;;;3.70;;
4585;SDS011;2305;50.118;8.952;2023-08-17T03:33:50;7.10;;;4.33;;
4585;SDS011;2305;50.118;8.952;2023-08-17T03:36:19;6.07;;;4.37;;
4585;SDS011;2305;50.118;8.952;2023-08-17T03:38:50;5.20;;;3.40;;
4585;SDS011;2305;50.118;8.952;2023-08-17T03:41:18;12.23;;;4.03;;
4585;SDS011;2305;50.118;8.952;2023-08-17T03:43:48;5.87;;;4.47;;
4585;SDS011;2305;50.118;8.952;2023-08-17T03:46:17;7.03;;;4.03;;
4585;SDS011;2305;50.118;8.952;2023-08-17T03:48:47;8.13;;;4.33;;
4585;SDS011;2305;50.118;8.952;2023-08-17T03:51:15;12.60;;;4.83;;
4585;SDS011;2305;50.118;8.952;2023-08-17T03:53:44;8.17;;;4.43;;
4585;SDS011;2305;50.118;8.952;2023-08-17T03:56:13;6.77;;;4.40;;
4585;SDS011;2305;50.118;8.952;2023-08-17T03:58:41;6.37;;;4.67;;
4585;SDS011;2305;50.118;8.952;2023-08-17T04:01:12;6.03;;;5.10;;
4585;SDS011;2305;50.118;8.952;2023-08-17T04:03:42;10.70;;;5.50;;
4585;SDS011;2305;50.118;8.952;2023-08-17T04:06:12;7.70;;;5.50;;
4585;SDS011;2305;50.118;8.952;2023-08-17T04:08:43;10.00;;;6.90;;
4585;SDS011;2305;50.118;8.952;2023-08-17T04:11:14;8.67;;;6.53;;
4585;SDS011;2305;50.118;8.952;2023-08-17T04:13:43;8.80;;;6.93;;
4585;SDS011;2305;50.118;8.952;2023-08-17T04:16:11;9.13;;;6.00;;
4585;SDS011;2305;50.118;8.952;2023-08-17T04:18:39;11.13;;;6.00;;
4585;SDS011;2305;50.118;8.952;2023-08-17T04:21:10;12.83;;;8.33;;
4585;SDS011;2305;50.118;8.952;2023-08-17T04:23:39;8.73;;;6.93;;
4585;SDS011;2305;50.118;8.952;2023-08-17T04:26:08;8.40;;;6.77;;
4585;SDS011;2305;50.118;8.952;2023-08-17T04:28:37;8.20;;;6.03;;
4585;SDS011;2305;50.118;8.952;2023-08-17T04:31:06;8.63;;;6.87;;
4585;SDS011;2305;50.118;8.952;2023-08-17T04:33:39;9.60;;;8.00;;
4585;SDS011;2305;50.118;8.952;2023-08-17T04:36:07;16.40;;;8.17;;
4585;SDS011;2305;50.118;8.952;2023-08-17T04:38:38;8.03;;;7.17;;
4585;SDS011;2305;50.118;8.952;2023-08-17T04:41:06;8.80;;;6.60;;
4585;SDS011;2305;50.118;8.952;2023-08-17T04:43:36;11.37;;;9.07;;
4585;SDS011;2305;50.118;8.952;2023-08-17T04:46:05;10.03;;;7.43;;
4585;SDS011;2305;50.118;8.952;2023-08-17T04:48:36;8.80;;;7.00;;
4585;SDS011;2305;50.118;8.952;2023-08-17T04:51:04;8.50;;;7.00;;
4585;SDS011;2305;50.118;8.952;2023-08-17T04:53:33;8.60;;;6.60;;
4585;SDS011;2305;50.118;8.952;2023-08-17T04:56:06;7.03;;;5.53;;
4585;SDS011;2305;50.118;8.952;2023-08-17T04:58:34;8.70;;;6.20;;
4585;SDS011;2305;50.118;8.952;2023-08-17T05:01:03;6.90;;;5.63;;
4585;SDS011;2305;50.118;8.952;2023-08-17T05:03:32;8.07;;;6.40;;
4585;SDS011;2305;50.118;8.952;2023-08-17T05:06:03;7.83;;;5.83;;
4585;SDS011;2305;50.118;8.952;2023-08-17T05:08:32;8.80;;;6.43;;
4585;SDS011;2305;50.118;8.952;2023-08-17T05:11:02;10.00;;;6.10;;
4585;SDS011;2305;50.118;8.952;2023-08-17T05:13:32;14.60;;;5.80;;
4585;SDS011;2305;50.118;8.952;2023-08-17T05:16:03;6.83;;;5.90;;
4585;SDS011;2305;50.118;8.952;2023-08-17T05:18:32;7.03;;;5.53;;
4585;SDS011;2305;50.118;8.952;2023-08-17T05:21:03;8.90;;;5.63;;
4585;SDS011;2305;50.118;8.952;2023-08-17T05:23:31;7.03;;;5.63;;
4585;SDS011;2305;50.118;8.952;2023-08-17T05:26:02;8.57;;;4.83;;
4585;SDS011;2305;50.118;8.952;2023-08-17T05:28:32;8.03;;;5.13;;
4585;SDS011;2305;50.118;8.952;2023-08-17T05:31:04;5.77;;;5.17;;
4585;SDS011;2305;50.118;8.952;2023-08-17T05:33:36;12.37;;;5.50;;
4585;SDS011;2305;50.118;8.952;2023-08-17T05:36:07;9.97;;;4.90;;
4585;SDS011;2305;50.118;8.952;2023-08-17T05:38:36;6.50;;;5.80;;
4585;SDS011;2305;50.118;8.952;2023-08-17T05:41:04;8.90;;;5.87;;
4585;SDS011;2305;50.118;8.952;2023-08-17T05:43:35;7.67;;;5.40;;
4585;SDS011;2305;50.118;8.952;2023-08-17T05:46:04;5.60;;;5.00;;
4585;SDS011;2305;50.118;8.952;2023-08-17T05:48:35;9.67;;;5.60;;
4585;SDS011;2305;50.118;8.952;2023-08-17T05:51:08;4.70;;;4.20;;
4585;SDS011;2305;50.118;8.952;2023-08-17T05:53:36;5.87;;;4.80;;
4585;SDS011;2305;50.118;8.952;2023-08-17T05:56:05;6.40;;;4.63;;
4585;SDS011;2305;50.118;8.952;2023-08-17T05:58:33;8.87;;;5.50;;
4585;SDS011;2305;50.118;8.952;2023-08-17T06:01:09;6.90;;;4.43;;
4585;SDS011;2305;50.118;8.952;2023-08-17T06:03:38;5.03;;;4.50;;
4585;SDS011;2305;50.118;8.952;2023-08-17T06:06:07;6.83;;;4.80;;
4585;SDS011;2305;50.118;8.952;2023-08-17T06:08:35;7.50;;;5.17;;
4585;SDS011;2305;50.118;8.952;2023-08-17T06:11:04;8.40;;;4.87;;
4585;SDS011;2305;50.118;8.952;2023-08-17T06:13:35;9.27;;;5.70;;
4585;SDS011;2305;50.118;8.952;2023-08-17T06:16:07;6.87;;;5.80;;
4585;SDS011;2305;50.118;8.952;2023-08-17T06:18:38;5.30;;;4.77;;
4585;SDS011;2305;50.118;8.952;2023-08-17T06:21:07;8.37;;;4.77;;
4585;SDS011;2305;50.118;8.952;2023-08-17T06:23:35;6.33;;;5.50;;
4585;SDS011;2305;50.118;8.952;2023-08-17T06:26:05;6.00;;;5.40;;
4585;SDS011;2305;50.118;8.952;2023-08-17T06:28:36;5.73;;;4.77;;
4585;SDS011;2305;50.118;8.952;2023-08-17T06:31:04;6.50;;;5.60;;
4585;SDS011;2305;50.118;8.952;2023-08-17T06:33:34;9.33;;;4.87;;
4585;SDS011;2305;50.118;8.952;2023-08-17T06:36:02;6.83;;;4.60;;
4585;SDS011;2305;50.118;8.952;2023-08-17T06:38:33;5.60;;;4.80;;
4585;SDS011;2305;50.118;8.952;2023-08-17T06:41:02;5.87;;;4.60;;
4585;SDS011;2305;50.118;8.952;2023-08-17T06:43:48;6.40;;;4.80;;
4585;SDS011;2305;50.118;8.952;2023-08-17T06:46:16;5.90;;;4.33;;
4585;SDS011;2305;50.118;8.952;2023-08-17T06:48:48;6.30;;;4.00;;
4585;SDS011;2305;50.118;8.952;2023-08-17T06:51:21;6.17;;;4.83;;
4585;SDS011;2305;50.118;8.952;2023-08-17T06:53:49;5.80;;;4.50;;
4585;SDS011;2305;50.118;8.952;2023-08-17T06:56:22;9.43;;;7.33;;
4585;SDS011;2305;50.118;8.952;2023-08-17T06:58:57;11.40;;;6.23;;
4585;SDS011;2305;50.118;8.952;2023-08-17T07:01:25;7.10;;;4.70;;
4585;SDS011;2305;50.118;8.952;2023-08-17T07:03:55;6.70;;;4.57;;
4585;SDS011;2305;50.118;8.952;2023-08-17T07:06:30;4.97;;;3.20;;
4585;SDS011;2305;50.118;8.952;2023-08-17T07:09:04;4.37;;;3.97;;
4585;SDS011;2305;50.118;8.952;2023-08-17T07:11:32;4.23;;;3.43;;
4585;SDS011;2305;50.118;8.952;2023-08-17T07:14:06;4.00;;;3.20;;
4585;SDS011;2305;50.118;8.952;2023-08-17T07:16:37;8.83;;;3.30;;
4585;SDS011;2305;50.118;8.952;2023-08-17T07:19:07;4.80;;;3.50;;
4585;SDS011;2305;50.118;8.952;2023-08-17T07:21:35;4.50;;;3.83;;
4585;SDS011;2305;50.118;8.952;2023-08-17T07:24:13;6.27;;;3.40;;
4585;SDS011;2305;50.118;8.952;2023-08-17T07:26:42;4.70;;;3.60;;
4585;SDS011;2305;50.118;8.952;2023-08-17T07:29:11;7.40;;;5.00;;
4585;SDS011;2305;50.118;8.952;2023-08-17T07:31:42;5.47;;;4.77;;
4585;SDS011;2305;50.118;8.952;2023-08-17T07:34:12;8.07;;;4.63;;
4585;SDS011;2305;50.118;8.952;2023-08-17T07:36:40;6.80;;;4.90;;
4585;SDS011;2305;50.118;8.952;2023-08-17T07:39:09;7.00;;;4.20;;
4585;SDS011;2305;50.118;8.952;2023-08-17T07:41:40;6.37;;;3.33;;
4585;SDS011;2305;50.118;8.952;2023-08-17T07:44:08;3.97;;;3.43;;
4585;SDS011;2305;50.118;8.952;2023-08-17T07:46:38;5.70;;;4.33;;
4585;SDS011;2305;50.118;8.952;2023-08-17T07:49:09;4.20;;;3.60;;
4585;SDS011;2305;50.118;8.952;2023-08-17T07:51:57;4.53;;;3.70;;
4585;SDS011;2305;50.118;8.952;2023-08-17T07:54:26;3.73;;;3.20;;
4585;SDS011;2305;50.118;8.952;2023-08-17T07:56:57;6.73;;;4.60;;
4585;SDS011;2305;50.118;8.952;2023-08-17T07:59:25;8.50;;;5.97;;
4585;SDS011;2305;50.118;8.952;2023-08-17T08:01:57;5.83;;;3.43;;
4585;SDS011;2305;50.118;8.952;2023-08-17T08:04:27;3.00;;;2.70;;
4585;SDS011;2305;50.118;8.952;2023-08-17T08:06:55;4.70;;;3.70;;
4585;SDS011;2305;50.118;8.952;2023-08-17T08:09:27;3.90;;;3.07;;
4585;SDS011;2305;50.118;8.952;2023-08-17T08:11:56;4.87;;;4.00;;
4585;SDS011;2305;50.118;8.952;2023-08-17T08:14:24;5.97;;;3.50;;
4585;SDS011;2305;50.118;8.952;2023-08-17T08:16:53;6.27;;;3.70;;
4585;SDS011;2305;50.118;8.952;2023-08-17T08:19:23;4.23;;;3.63;;
4585;SDS011;2305;50.118;8.952;2023-08-17T08:21:54;7.60;;;3.53;;
4585;SDS011;2305;50.118;8.952;2023-08-17T08:24:27;6.50;;;3.50;;
4585;SDS011;2305;50.118;8.952;2023-08-17T08:27:04;5.83;;;3.63;;
4585;SDS011;2305;50.118;8.952;2023-08-17T08:29:33;5.57;;;3.33;;
4585;SDS011;2305;50.118;8.952;2023-08-17T08:32:01;3.57;;;3.20;;
4585;SDS011;2305;50.118;8.952;2023-08-17T08:34:30;3.77;;;3.20;;
4585;SDS011;2305;50.118;8.952;2023-08-17T08:36:58;4.93;;;2.83;;
4585;SDS011;2305;50.118;8.952;2023-08-17T08:39:28;5.73;;;3.10;;
4585;SDS011;2305;50.118;8.952;2023-08-17T08:41:56;4.27;;;3.47;;
4585;SDS011;2305;50.118;8.952;2023-08-17T08:44:26;4.67;;;3.10;;
4585;SDS011;2305;50.118;8.952;2023-08-17T08:46:56;3.20;;;2.90;;
4585;SDS011;2305;50.118;8.952;2023-08-17T08:49:28;3.90;;;2.90;;
4585;SDS011;2305;50.118;8.952;2023-08-17T08:51:57;3.87;;;3.10;;
4585;SDS011;2305;50.118;8.952;2023-08-17T08:54:29;3.53;;;2.90;;
4585;SDS011;2305;50.118;8.952;2023-08-17T08:57:04;3.93;;;3.37;;
4585;SDS011;2305;50.118;8.952;2023-08-17T08:59:36;4.00;;;2.70;;
4585;SDS011;2305;50.118;8.952;2023-08-17T09:02:14;4.33;;;2.50;;
4585;SDS011;2305;50.118;8.952;2023-08-17T09:04:44;3.70;;;3.13;;
4585;SDS011;2305;50.118;8.952;2023-08-17T09:07:12;5.37;;;2.80;;
4585;SDS011;2305;50.118;8.952;2023-08-17T09:09:42;10.80;;;2.57;;
4585;SDS011;2305;50.118;8.952;2023-08-17T09:12:12;2.83;;;2.30;;
4585;SDS011;2305;50.118;8.952;2023-08-17T09:14:57;3.97;;;1.93;;
4585;SDS011;2305;50.118;8.952;2023-08-17T09:17:32;3.20;;;2.00;;
4585;SDS011;2305;50.118;8.952;2023-08-17T09:20:01;2.83;;;2.20;;
4585;SDS011;2305;50.118;8.952;2023-08-17T09:22:36;3.33;;;2.10;;
4585;SDS011;2305;50.118;8.952;2023-08-17T09:25:07;3.17;;;1.90;;
4585;SDS011;2305;50.118;8.952;2023-08-17T09:27:40;2.67;;;2.00;;
4585;SDS011;2305;50.118;8.952;2023-08-17T09:30:11;5.57;;;2.37;;
4585;SDS011;2305;50.118;8.952;2023-08-17T09:32:44;4.30;;;1.90;;
4585;SDS011;2305;50.118;8.952;2023-08-17T09:35:17;3.90;;;2.53;;
4585;SDS011;2305;50.118;8.952;2023-08-17T09:37:49;2.87;;;2.37;;
4585;SDS011;2305;50.118;8.952;2023-08-17T09:40:18;2.57;;;2.20;;
4585;SDS011;2305;50.118;8.952;2023-08-17T09:42:48;3.67;;;2.40;;
4585;SDS011;2305;50.118;8.952;2023-08-17T09:45:17;4.70;;;2.30;;
4585;SDS011;2305;50.118;8.952;2023-08-17T09:47:45;3.63;;;1.93;;
4585;SDS011;2305;50.118;8.952;2023-08-17T09:50:14;4.37;;;2.40;;
4585;SDS011;2305;50.118;8.952;2023-08-17T09:52:42;2.67;;;2.30;;
4585;SDS011;2305;50.118;8.952;2023-08-17T09:55:10;2.77;;;1.93;;
4585;SDS011;2305;50.118;8.952;2023-08-17T09:57:46;2.87;;;2.27;;
4585;SDS011;2305;50.118;8.952;2023-08-17T10:00:18;3.20;;;2.30;;
4585;SDS011;2305;50.118;8.952;2023-08-17T10:02:50;2.80;;;2.00;;
4585;SDS011;2305;50.118;8.952;2023-08-17T10:05:20;3.30;;;2.07;;
4585;SDS011;2305;50.118;8.952;2023-08-17T10:07:54;2.53;;;2.20;;
4585;SDS011;2305;50.118;8.952;2023-08-17T10:10:29;3.43;;;2.13;;
4585;SDS011;2305;50.118;8.952;2023-08-17T10:13:08;3.70;;;2.20;;
4585;SDS011;2305;50.118;8.952;2023-08-17T10:15:38;5.20;;;2.07;;
4585;SDS011;2305;50.118;8.952;2023-08-17T10:18:14;2.03;;;1.50;;
4585;SDS011;2305;50.118;8.952;2023-08-17T10:20:54;3.53;;;2.07;;
4585;SDS011;2305;50.118;8.952;2023-08-17T10:23:28;3.80;;;2.00;;
4585;SDS011;2305;50.118;8.952;2023-08-17T10:26:02;3.07;;;2.20;;
4585;SDS011;2305;50.118;8.952;2023-08-17T10:28:34;2.67;;;1.87;;
4585;SDS011;2305;50.118;8.952;2023-08-17T10:31:04;2.73;;;2.17;;
4585;SDS011;2305;50.118;8.952;2023-08-17T10:33:37;2.40;;;2.00;;
4585;SDS011;2305;50.118;8.952;2023-08-17T10:36:08;3.03;;;2.00;;
4585;SDS011;2305;50.118;8.952;2023-08-17T10:38:42;5.30;;;2.00;;
4585;SDS011;2305;50.118;8.952;2023-08-17T10:41:12;2.83;;;1.90;;
4585;SDS011;2305;50.118;8.952;2023-08-17T10:43:55;2.60;;;1.80;;
4585;SDS011;2305;50.118;8.952;2023-08-17T10:46:33;3.90;;;1.63;;
4585;SDS011;2305;50.118;8.952;2023-08-17T10:49:03;2.53;;;1.93;;
4585;SDS011;2305;50.118;8.952;2023-08-17T10:51:33;2.40;;;2.20;;
4585;SDS011;2305;50.118;8.952;2023-08-17T10:54:12;1.63;;;1.53;;
4585;SDS011;2305;50.118;8.952;2023-08-17T10:56:41;2.83;;;2.20;;
4585;SDS011;2305;50.118;8.952;2023-08-17T10:59:26;2.37;;;1.73;;
4585;SDS011;2305;50.118;8.952;2023-08-17T11:02:03;1.77;;;1.40;;
4585;SDS011;2305;50.118;8.952;2023-08-17T11:04:36;1.90;;;1.70;;
4585;SDS011;2305;50.118;8.952;2023-08-17T11:07:09;2.87;;;1.97;;
4585;SDS011;2305;50.118;8.952;2023-08-17T11:09:43;6.27;;;2.50;;
4585;SDS011;2305;50.118;8.952;2023-08-17T11:12:24;2.20;;;2.00;;
4585;SDS011;2305;50.118;8.952;2023-08-17T11:15:04;3.10;;;1.90;;
4585;SDS011;2305;50.118;8.952;2023-08-17T11:17:34;2.50;;;2.30;;
4585;SDS011;2305;50.118;8.952;2023-08-17T11:20:03;8.00;;;2.03;;
4585;SDS011;2305;50.118;8.952;2023-08-17T11:22:33;3.50;;;2.77;;
4585;SDS011;2305;50.118;8.952;2023-08-17T11:25:01;5.30;;;2.73;;
4585;SDS011;2305;50.118;8.952;2023-08-17T11:27:30;13.73;;;9.30;;
4585;SDS011;2305;50.118;8.952;2023-08-17T11:30:06;7.07;;;5.60;;
4585;SDS011;2305;50.118;8.952;2023-08-17T11:32:38;3.30;;;2.47;;
4585;SDS011;2305;50.118;8.952;2023-08-17T11:35:09;4.73;;;2.20;;
4585;SDS011;2305;50.118;8.952;2023-08-17T11:37:39;4.57;;;2.70;;
4585;SDS011;2305;50.118;8.952;2023-08-17T11:40:08;2.80;;;2.20;;
4585;SDS011;2305;50.118;8.952;2023-08-17T11:42:41;2.20;;;1.87;;
4585;SDS011;2305;50.118;8.952;2023-08-17T11:45:12;4.60;;;2.17;;
4585;SDS011;2305;50.118;8.952;2023-08-17T11:47:42;2.47;;;1.90;;
4585;SDS011;2305;50.118;8.952;2023-08-17T11:50:13;2.53;;;2.03;;
4585;SDS011;2305;50.118;8.952;2023-08-17T11:52:51;2.47;;;1.77;;
4585;SDS011;2305;50.118;8.952;2023-08-17T11:55:19;2.30;;;2.00;;
4585;SDS011;2305;50.118;8.952;2023-08-17T11:57:48;2.13;;;1.80;;
4585;SDS011;2305;50.118;8.952;2023-08-17T12:00:19;9.13;;;2.33;;
4585;SDS011;2305;50.118;8.952;2023-08-17T12:02:47;6.70;;;2.40;;
4585;SDS011;2305;50.118;8.952;2023-08-17T12:05:23;3.97;;;1.97;;
4585;SDS011;2305;50.118;8.952;2023-08-17T12:07:54;2.90;;;2.20;;
4585;SDS011;2305;50.118;8.952;2023-08-17T12:10:27;7.67;;;2.03;;
4585;SDS011;2305;50.118;8.952;2023-08-17T12:12:57;3.57;;;1.60;;
4585;SDS011;2305;50.118;8.952;2023-08-17T12:15:31;1.90;;;1.53;;
4585;SDS011;2305;50.118;8.952;2023-08-17T12:18:01;2.97;;;1.97;;
4585;SDS011;2305;50.118;8.952;2023-08-17T12:20:32;4.80;;;1.90;;
4585;SDS011;2305;50.118;8.952;2023-08-17T12:23:02;2.53;;;1.50;;
4585;SDS011;2305;50.118;8.952;2023-08-17T12:25:35;2.67;;;1.77;;
4585;SDS011;2305;50.118;8.952;2023-08-17T12:28:06;4.93;;;1.63;;
4585;SDS011;2305;50.118;8.952;2023-08-17T12:30:41;2.60;;;1.73;;
4585;SDS011;2305;50.118;8.952;2023-08-17T12:33:11;3.40;;;1.67;;
4585;SDS011;2305;50.118;8.952;2023-08-17T12:35:39;3.50;;;2.40;;
4585;SDS011;2305;50.118;8.952;2023-08-17T12:38:07;2.20;;;1.70;;
4585;SDS011;2305;50.118;8.952;2023-08-17T12:40:36;3.20;;;1.93;;
4585;SDS011;2305;50.118;8.952;2023-08-17T12:43:05;3.87;;;2.10;;
4585;SDS011;2305;50.118;8.952;2023-08-17T12:45:42;3.90;;;1.80;;
4585;SDS011;2305;50.118;8.952;2023-08-17T12:48:10;5.17;;;2.00;;
4585;SDS011;2305;50.118;8.952;2023-08-17T12:50:38;2.73;;;1.70;;
4585;SDS011;2305;50.118;8.952;2023-08-17T12:53:13;2.17;;;1.87;;
4585;SDS011;2305;50.118;8.952;2023-08-17T12:55:41;2.23;;;1.60;;
4585;SDS011;2305;50.118;8.952;2023-08-17T12:58:13;1.70;;;1.60;;
4585;SDS011;2305;50.118;8.952;2023-08-17T13:00:46;2.13;;;1.80;;
4585;SDS011;2305;50.118;8.952;2023-08-17T13:03:24;1.93;;;1.73;;
4585;SDS011;2305;50.118;8.952;2023-08-17T13:05:57;3.17;;;2.20;;
4585;SDS011;2305;50.118;8.952;2023-08-17T13:08:28;2.40;;;1.80;;
4585;SDS011;2305;50.118;8.952;2023-08-17T13:10:59;2.17;;;1.60;;
4585;SDS011;2305;50.118;8.952;2023-08-17T13:13:32;2.63;;;1.83;;
4585;SDS011;2305;50.118;8.952;2023-08-17T13:16:08;4.40;;;1.80;;
4585;SDS011;2305;50.118;8.952;2023-08-17T13:18:50;5.67;;;1.83;;
4585;SDS011;2305;50.118;8.952;2023-08-17T13:21:21;4.10;;;2.10;;
4585;SDS011;2305;50.118;8.952;2023-08-17T13:23:52;2.20;;;1.70;;
4585;SDS011;2305;50.118;8.952;2023-08-17T13:26:20;4.70;;;1.83;;
4585;SDS011;2305;50.118;8.952;2023-08-17T13:28:50;3.17;;;2.00;;
4585;SDS011;2305;50.118;8.952;2023-08-17T13:31:21;2.67;;;1.77;;
4585;SDS011;2305;50.118;8.952;2023-08-17T13:33:51;3.13;;;1.70;;
4585;SDS011;2305;50.118;8.952;2023-08-17T13:36:20;4.33;;;2.30;;
4585;SDS011;2305;50.118;8.952;2023-08-17T13:38:50;2.23;;;1.90;;
4585;SDS011;2305;50.118;8.952;2023-08-17T13:41:21;3.10;;;1.63;;
4585;SDS011;2305;50.118;8.952;2023-08-17T13:43:54;1.60;;;1.50;;
4585;SDS011;2305;50.118;8.952;2023-08-17T13:46:30;2.97;;;2.00;;
4585;SDS011;2305;50.118;8.952;2023-08-17T13:48:58;2.13;;;1.63;;
4585;SDS011;2305;50.118;8.952;2023-08-17T13:51:27;1.97;;;1.40;;
4585;SDS011;2305;50.118;8.952;2023-08-17T13:53:56;2.10;;;1.90;;
4585;SDS011;2305;50.118;8.952;2023-08-17T13:56:26;2.40;;;1.60;;
4585;SDS011;2305;50.118;8.952;2023-08-17T13:58:55;2.27;;;1.50;;
4585;SDS011;2305;50.118;8.952;2023-08-17T14:01:25;4.53;;;1.40;;
4585;SDS011;2305;50.118;8.952;2023-08-17T14:03:55;2.30;;;1.40;;
4585;SDS011;2305;50.118;8.952;2023-08-17T14:06:23;1.83;;;1.63;;
4585;SDS011;2305;50.118;8.952;2023-08-17T14:08:56;1.80;;;1.60;;
4585;SDS011;2305;50.118;8.952;2023-08-17T14:11:26;4.03;;;1.73;;
4585;SDS011;2305;50.118;8.952;2023-08-17T14:13:54;2.23;;;1.40;;
4585;SDS011;2305;50.118;8.952;2023-08-17T14:16:23;2.53;;;1.80;;
4585;SDS011;2305;50.118;8.952;2023-08-17T14:18:51;2.63;;;1.80;;
4585;SDS011;2305;50.118;8.952;2023-08-17T14:21:23;1.60;;;1.17;;
4585;SDS011;2305;50.118;8.952;2023-08-17T14:23:52;2.47;;;1.60;;
4585;SDS011;2305;50.118;8.952;2023-08-17T14:26:23;4.33;;;1.60;;
4585;SDS011;2305;50.118;8.952;2023-08-17T14:28:56;2.10;;;1.60;;
4585;SDS011;2305;50.118;8.952;2023-08-17T14:31:25;1.83;;;1.57;;
4585;SDS011;2305;50.118;8.952;2023-08-17T14:33:57;2.60;;;1.77;;
4585;SDS011;2305;50.118;8.952;2023-08-17T14:36:38;3.30;;;1.80;;
4585;SDS011;2305;50.118;8.952;2023-08-17T14:39:09;3.70;;;1.33;;
4585;SDS011;2305;50.118;8.952;2023-08-17T14:41:38;2.63;;;1.50;;
4585;SDS011;2305;50.118;8.952;2023-08-17T14:44:12;2.37;;;1.70;;
4585;SDS011;2305;50.118;8.952;2023-08-17T14:46:41;1.73;;;1.40;;
4585;SDS011;2305;50.118;8.952;2023-08-17T14:49:10;3.03;;;1.80;;
4585;SDS011;2305;50.118;8.952;2023-08-17T14:51:39;2.00;;;1.57;;
4585;SDS011;2305;50.118;8.952;2023-08-17T14:54:12;2.60;;;1.47;;
4585;SDS011;2305;50.118;8.952;2023-08-17T14:56:43;2.67;;;1.57;;
4585;SDS011;2305;50.118;8.952;2023-08-17T14:59:13;4.37;;;1.60;;
4585;SDS011;2305;50.118;8.952;2023-08-17T15:01:43;2.80;;;1.73;;
4585;SDS011;2305;50.118;8.952;2023-08-17T15:04:15;2.00;;;1.80;;
4585;SDS011;2305;50.118;8.952;2023-08-17T15:06:49;2.80;;;1.57;;
4585;SDS011;2305;50.118;8.952;2023-08-17T15:09:21;3.33;;;1.67;;
4585;SDS011;2305;50.118;8.952;2023-08-17T15:11:49;3.00;;;1.60;;
4585;SDS011;2305;50.118;8.952;2023-08-17T15:14:21;2.03;;;1.37;;
4585;SDS011;2305;50.118;8.952;2023-08-17T15:16:52;2.60;;;1.60;;
4585;SDS011;2305;50.118;8.952;2023-08-17T15:19:25;3.93;;;1.50;;
4585;SDS011;2305;50.118;8.952;2023-08-17T15:22:09;1.60;;;1.47;;
4585;SDS011;2305;50.118;8.952;2023-08-17T15:24:41;2.80;;;1.20;;
4585;SDS011;2305;50.118;8.952;2023-08-17T15:27:11;2.30;;;1.67;;
4585;SDS011;2305;50.118;8.952;2023-08-17T15:29:39;2.13;;;1.60;;
4585;SDS011;2305;50.118;8.952;2023-08-17T15:32:07;1.90;;;1.57;;
4585;SDS011;2305;50.118;8.952;2023-08-17T15:34:37;3.80;;;1.47;;
4585;SDS011;2305;50.118;8.952;2023-08-17T15:37:05;2.30;;;1.50;;